Time;durP1;ratioP1;P1;durP2;ratioP2;P2;SDS_P1;SDS_P2;PMS_P1;PMS_P2;Temp;Humidity;BMP_temperature;BMP_pressure;BME280_temperature;BME280_humidity;BME280_pressure;Samples;Min_cycle;Max_cycle;Signal;HPM_P1;HPM_P2
2021/10/10 00:00:28;;;;;;;21.47;12.37;;;;;;;;;;5055824;28;20402;-62
2021/10/10 00:02:54;;;;;;;23.67;13.30;;;;;;;;;;5056136;28;20394;-62
2021/10/10 00:05:20;;;;;;;21.57;12.57;;;;;;;;;;5049051;28;20426;-62
2021/10/10 00:07:46;;;;;;;19.07;12.03;;;;;;;;;;5055706;28;20488;-61
2021/10/10 00:10:13;;;;;;;22.20;12.97;;;;;;;;;;5055662;28;20386;-62
2021/10/10 00:12:41;;;;;;;20.57;12.40;;;;;;;;;;5055588;28;20394;-62
2021/10/10 00:15:09;;;;;;;24.67;12.10;;;;;;;;;;5056011;28;20481;-61
2021/10/10 00:17:35;;;;;;;17.13;11.67;;;;;;;;;;5057617;28;20422;-62
2021/10/10 00:20:01;;;;;;;18.00;12.30;;;;;;;;;;5056025;28;20536;-61
2021/10/10 00:22:28;;;;;;;19.30;12.20;;;;;;;;;;5055753;28;20402;-59
2021/10/10 00:24:54;;;;;;;21.27;12.60;;;;;;;;;;5055761;28;20413;-60
2021/10/10 00:27:21;;;;;;;17.20;12.80;;;;;;;;;;5055156;28;20563;-61
2021/10/10 00:29:48;;;;;;;20.50;12.37;;;;;;;;;;5055640;28;20425;-60
2021/10/10 00:32:15;;;;;;;23.77;13.47;;;;;;;;;;5055189;28;20449;-61
2021/10/10 00:34:41;;;;;;;16.37;12.30;;;;;;;;;;5055120;28;20729;-60
2021/10/10 00:37:07;;;;;;;18.20;13.10;;;;;;;;;;5055397;28;20451;-62
2021/10/10 00:39:33;;;;;;;18.10;11.80;;;;;;;;;;5055296;28;20778;-63
2021/10/10 00:41:59;;;;;;;17.83;12.17;;;;;;;;;;5054938;28;20925;-63
2021/10/10 00:44:25;;;;;;;22.53;13.43;;;;;;;;;;5054960;28;20401;-63
2021/10/10 00:46:52;;;;;;;18.90;12.90;;;;;;;;;;5055048;28;20422;-63
2021/10/10 00:49:18;;;;;;;18.90;13.47;;;;;;;;;;5055115;28;20494;-63
2021/10/10 00:51:45;;;;;;;24.03;15.33;;;;;;;;;;5054576;28;20449;-63
2021/10/10 00:54:17;;;;;;;22.00;16.47;;;;;;;;;;5054788;28;20406;-63
2021/10/10 00:56:43;;;;;;;20.00;13.37;;;;;;;;;;5054794;28;20441;-63
2021/10/10 00:59:10;;;;;;;18.37;12.40;;;;;;;;;;5054962;28;20817;-63
2021/10/10 01:01:36;;;;;;;17.43;12.70;;;;;;;;;;5054999;28;20404;-63
2021/10/10 01:04:02;;;;;;;21.40;15.10;;;;;;;;;;5054749;28;20495;-62
2021/10/10 01:06:29;;;;;;;37.00;18.23;;;;;;;;;;5054824;28;20875;-63
2021/10/10 01:08:55;;;;;;;28.73;17.90;;;;;;;;;;5054795;28;20405;-63
2021/10/10 01:11:21;;;;;;;26.30;17.00;;;;;;;;;;5054418;28;20555;-63
2021/10/10 01:13:48;;;;;;;26.43;17.70;;;;;;;;;;5054414;28;20489;-61
2021/10/10 01:16:15;;;;;;;27.10;16.03;;;;;;;;;;5054332;28;20417;-63
2021/10/10 01:18:41;;;;;;;18.20;13.70;;;;;;;;;;5054413;28;20402;-63
2021/10/10 01:21:07;;;;;;;25.20;16.97;;;;;;;;;;5054612;28;20744;-62
2021/10/10 01:23:33;;;;;;;32.23;16.97;;;;;;;;;;5054332;28;20401;-62
2021/10/10 01:25:59;;;;;;;26.53;15.30;;;;;;;;;;5054226;28;20406;-63
2021/10/10 01:28:25;;;;;;;23.50;15.43;;;;;;;;;;5054240;28;20469;-63
2021/10/10 01:30:51;;;;;;;18.10;14.17;;;;;;;;;;5053475;28;20453;-63
2021/10/10 01:33:17;;;;;;;26.43;16.10;;;;;;;;;;5054026;28;20438;-62
2021/10/10 01:35:43;;;;;;;21.73;13.93;;;;;;;;;;5054306;28;20735;-63
2021/10/10 01:38:14;;;;;;;25.40;15.83;;;;;;;;;;5053959;28;20463;-63
2021/10/10 01:40:43;;;;;;;20.40;14.70;;;;;;;;;;5053938;28;20395;-58
2021/10/10 01:43:09;;;;;;;20.80;13.70;;;;;;;;;;5053922;28;20736;-62
2021/10/10 01:45:35;;;;;;;20.30;13.17;;;;;;;;;;5053921;28;21024;-61
2021/10/10 01:48:01;;;;;;;21.67;15.47;;;;;;;;;;5053797;28;20942;-59
2021/10/10 01:50:27;;;;;;;17.87;13.00;;;;;;;;;;5054023;28;20412;-59
2021/10/10 01:52:53;;;;;;;22.17;15.10;;;;;;;;;;5053781;28;20397;-62
2021/10/10 01:55:22;;;;;;;24.33;14.40;;;;;;;;;;5051659;28;20436;-62
2021/10/10 01:57:48;;;;;;;23.10;14.70;;;;;;;;;;5048125;28;20426;-59
2021/10/10 02:00:15;;;;;;;22.60;14.57;;;;;;;;;;5032394;28;20490;-60
2021/10/10 02:02:41;;;;;;;27.50;16.97;;;;;;;;;;5033856;28;20419;-62
2021/10/10 02:05:08;;;;;;;23.40;15.00;;;;;;;;;;5035316;28;20467;-62
2021/10/10 02:07:34;;;;;;;21.10;14.90;;;;;;;;;;5053389;28;20437;-63
2021/10/10 02:10:00;;;;;;;21.37;15.07;;;;;;;;;;5053603;28;20408;-63
2021/10/10 02:12:26;;;;;;;21.93;15.00;;;;;;;;;;5052051;28;20862;-63
2021/10/10 02:14:52;;;;;;;26.93;16.93;;;;;;;;;;5053352;28;20779;-63
2021/10/10 02:17:19;;;;;;;27.70;16.20;;;;;;;;;;5053074;28;20914;-63
2021/10/10 02:19:45;;;;;;;24.23;17.60;;;;;;;;;;5053324;28;20398;-62
2021/10/10 02:22:11;;;;;;;26.90;17.60;;;;;;;;;;5053366;28;20920;-63
2021/10/10 02:24:37;;;;;;;24.90;16.13;;;;;;;;;;5053203;28;20402;-63
2021/10/10 02:27:03;;;;;;;22.80;16.83;;;;;;;;;;5053118;28;20938;-63
2021/10/10 02:29:31;;;;;;;20.50;16.27;;;;;;;;;;5053200;28;20504;-63
2021/10/10 02:31:57;;;;;;;25.53;17.73;;;;;;;;;;5051703;28;20463;-63
2021/10/10 02:34:23;;;;;;;22.50;16.30;;;;;;;;;;5053101;28;20398;-63
2021/10/10 02:36:49;;;;;;;26.30;17.13;;;;;;;;;;5052868;28;20426;-63
2021/10/10 02:39:15;;;;;;;29.63;18.33;;;;;;;;;;5052968;28;20880;-63
2021/10/10 02:41:41;;;;;;;22.13;16.73;;;;;;;;;;5052285;28;20406;-63
2021/10/10 02:44:08;;;;;;;26.60;17.27;;;;;;;;;;5053035;28;20497;-63
2021/10/10 02:46:34;;;;;;;24.20;16.87;;;;;;;;;;5053093;28;20436;-62
2021/10/10 02:49:02;;;;;;;23.83;16.27;;;;;;;;;;5052926;28;20471;-63
2021/10/10 02:51:28;;;;;;;24.40;17.10;;;;;;;;;;5052871;28;20953;-63
2021/10/10 02:53:54;;;;;;;25.53;17.13;;;;;;;;;;5053261;28;20495;-61
2021/10/10 02:56:20;;;;;;;29.63;17.40;;;;;;;;;;5053044;28;20915;-60
2021/10/10 02:58:46;;;;;;;24.63;18.47;;;;;;;;;;5053193;28;20863;-62
2021/10/10 03:01:12;;;;;;;27.23;17.10;;;;;;;;;;5053219;28;20490;-63
2021/10/10 03:03:38;;;;;;;29.00;17.27;;;;;;;;;;5052895;28;20404;-63
2021/10/10 03:06:04;;;;;;;27.10;17.77;;;;;;;;;;5052825;28;20406;-63
2021/10/10 03:08:30;;;;;;;25.90;17.40;;;;;;;;;;5052847;28;20433;-63
2021/10/10 03:10:56;;;;;;;27.10;17.10;;;;;;;;;;5052532;28;20449;-63
2021/10/10 03:13:22;;;;;;;24.67;16.50;;;;;;;;;;5052569;28;20394;-63
2021/10/10 03:15:48;;;;;;;22.93;16.60;;;;;;;;;;5052503;28;20409;-63
2021/10/10 03:18:14;;;;;;;25.60;18.17;;;;;;;;;;5052759;28;20422;-63
2021/10/10 03:20:40;;;;;;;28.80;18.00;;;;;;;;;;5052663;28;20523;-63
2021/10/10 03:23:06;;;;;;;32.43;20.30;;;;;;;;;;5052828;28;20481;-63
2021/10/10 03:25:32;;;;;;;29.80;19.33;;;;;;;;;;5052891;28;20436;-63
2021/10/10 03:27:58;;;;;;;28.20;16.97;;;;;;;;;;5048173;28;20468;-62
2021/10/10 03:30:24;;;;;;;28.47;18.93;;;;;;;;;;5043470;28;20492;-63
2021/10/10 03:32:50;;;;;;;29.57;17.43;;;;;;;;;;5050253;28;20510;-63
2021/10/10 03:35:17;;;;;;;22.70;17.40;;;;;;;;;;5052162;28;20409;-63
2021/10/10 03:37:43;;;;;;;27.77;17.90;;;;;;;;;;5052170;28;20914;-63
2021/10/10 03:40:10;;;;;;;26.87;18.50;;;;;;;;;;5052465;28;20542;-63
2021/10/10 03:42:37;;;;;;;26.97;19.23;;;;;;;;;;5052568;28;20406;-62
2021/10/10 03:45:03;;;;;;;24.80;18.30;;;;;;;;;;5052377;28;20550;-63
2021/10/10 03:47:29;;;;;;;27.10;18.50;;;;;;;;;;5052242;28;20422;-63
2021/10/10 03:49:55;;;;;;;29.90;19.00;;;;;;;;;;5052596;28;20431;-64
2021/10/10 03:52:21;;;;;;;26.03;18.77;;;;;;;;;;5052245;28;20460;-63
2021/10/10 03:57:32;;;;;;;26.23;18.87;;;;;;;;;;5055889;28;20405;-63
2021/10/10 04:00:09;;;;;;;30.80;19.60;;;;;;;;;;5056157;28;20409;-63
2021/10/10 04:02:36;;;;;;;24.03;18.23;;;;;;;;;;5056114;28;20382;-63
2021/10/10 04:05:04;;;;;;;25.93;18.80;;;;;;;;;;5056148;28;20425;-63
2021/10/10 04:07:30;;;;;;;26.80;18.33;;;;;;;;;;5036198;28;20458;-63
2021/10/10 04:09:56;;;;;;;31.47;20.87;;;;;;;;;;5035830;28;20409;-63
2021/10/10 04:12:22;;;;;;;26.70;17.13;;;;;;;;;;5035566;28;20460;-63
2021/10/10 04:14:48;;;;;;;27.27;19.07;;;;;;;;;;5034842;28;20434;-63
2021/10/10 04:17:14;;;;;;;27.83;19.27;;;;;;;;;;5035120;28;20437;-63
2021/10/10 04:19:40;;;;;;;30.77;19.47;;;;;;;;;;5035613;28;20474;-63
2021/10/10 04:22:07;;;;;;;34.33;19.20;;;;;;;;;;5051586;28;20417;-62
2021/10/10 04:24:33;;;;;;;25.27;19.57;;;;;;;;;;5055849;28;20409;-63
2021/10/10 04:26:59;;;;;;;28.07;20.20;;;;;;;;;;5055249;28;20564;-63
2021/10/10 04:29:25;;;;;;;31.37;21.20;;;;;;;;;;5055350;28;20414;-63
2021/10/10 04:31:51;;;;;;;33.60;20.30;;;;;;;;;;5055295;28;20975;-63
2021/10/10 04:34:17;;;;;;;29.83;19.83;;;;;;;;;;5055215;28;20481;-63
2021/10/10 04:36:43;;;;;;;34.83;22.27;;;;;;;;;;5055074;28;20488;-63
2021/10/10 04:39:10;;;;;;;32.60;20.73;;;;;;;;;;5055140;28;20394;-63
2021/10/10 04:41:36;;;;;;;23.90;19.20;;;;;;;;;;5055141;28;20424;-63
2021/10/10 04:44:02;;;;;;;36.90;21.30;;;;;;;;;;5055121;28;20416;-63
2021/10/10 04:46:28;;;;;;;29.77;20.60;;;;;;;;;;5054907;28;20460;-62
2021/10/10 04:48:54;;;;;;;32.73;22.00;;;;;;;;;;5054975;28;20952;-63
2021/10/10 04:51:20;;;;;;;33.00;21.50;;;;;;;;;;5055049;28;20442;-62
2021/10/10 04:53:46;;;;;;;34.67;21.43;;;;;;;;;;5055149;28;20743;-63
2021/10/10 04:56:12;;;;;;;34.73;19.90;;;;;;;;;;5054624;28;20455;-62
2021/10/10 04:58:38;;;;;;;29.17;19.53;;;;;;;;;;5053555;28;20970;-63
2021/10/10 05:01:04;;;;;;;29.80;21.70;;;;;;;;;;5054823;28;20758;-61
2021/10/10 05:03:30;;;;;;;35.20;21.17;;;;;;;;;;5054619;28;20878;-62
2021/10/10 05:05:56;;;;;;;30.80;21.67;;;;;;;;;;5053659;28;20402;-62
2021/10/10 05:08:22;;;;;;;29.40;20.30;;;;;;;;;;5054807;28;20500;-63
2021/10/10 05:10:48;;;;;;;25.30;18.40;;;;;;;;;;5054467;28;20457;-62
2021/10/10 05:13:14;;;;;;;30.03;20.07;;;;;;;;;;5054764;28;20519;-62
2021/10/10 05:15:40;;;;;;;33.90;21.37;;;;;;;;;;5048559;28;20452;-61
2021/10/10 05:18:06;;;;;;;29.07;21.97;;;;;;;;;;5054277;28;20433;-61
2021/10/10 05:20:32;;;;;;;31.07;20.67;;;;;;;;;;5054415;28;20393;-62
2021/10/10 05:22:58;;;;;;;29.93;21.80;;;;;;;;;;5054679;28;20394;-62
2021/10/10 05:25:24;;;;;;;29.83;19.97;;;;;;;;;;5054565;28;20481;-63
2021/10/10 05:27:50;;;;;;;31.20;20.40;;;;;;;;;;5062112;23;20493;-76
2021/10/10 05:30:16;;;;;;;40.03;20.80;;;;;;;;;;5053861;28;20402;-76
2021/10/10 05:32:42;;;;;;;29.67;21.40;;;;;;;;;;5054130;28;20496;-76
2021/10/10 05:35:08;;;;;;;30.33;20.37;;;;;;;;;;5054132;28;20424;-77
2021/10/10 05:37:34;;;;;;;28.97;21.27;;;;;;;;;;5053893;28;20402;-76
2021/10/10 05:40:01;;;;;;;26.40;20.00;;;;;;;;;;5052692;28;20398;-78
2021/10/10 05:42:27;;;;;;;33.13;21.50;;;;;;;;;;5053793;28;20480;-77
2021/10/10 05:44:53;;;;;;;27.10;18.67;;;;;;;;;;5053451;28;20430;-77
2021/10/10 05:47:19;;;;;;;29.40;21.17;;;;;;;;;;5053803;28;20484;-76
2021/10/10 05:49:45;;;;;;;29.60;20.90;;;;;;;;;;5052596;28;20786;-77
2021/10/10 05:52:11;;;;;;;30.13;19.73;;;;;;;;;;5053433;28;20437;-77
2021/10/10 05:54:39;;;;;;;30.10;20.77;;;;;;;;;;5053412;28;20432;-76
2021/10/10 05:57:08;;;;;;;32.37;21.20;;;;;;;;;;5053344;28;20409;-77
2021/10/10 05:59:35;;;;;;;31.30;20.73;;;;;;;;;;5053369;28;20493;-76
2021/10/10 06:02:01;;;;;;;28.53;20.40;;;;;;;;;;5053325;28;20413;-76
2021/10/10 06:04:28;;;;;;;31.53;20.50;;;;;;;;;;5053184;28;20917;-76
2021/10/10 06:06:54;;;;;;;37.10;22.03;;;;;;;;;;5047560;28;20431;-76
2021/10/10 06:09:20;;;;;;;28.63;21.53;;;;;;;;;;5053391;28;20413;-76
2021/10/10 06:11:46;;;;;;;33.57;20.07;;;;;;;;;;5051782;28;20460;-76
2021/10/10 06:14:13;;;;;;;40.27;20.30;;;;;;;;;;5053083;28;20472;-77
2021/10/10 06:16:39;;;;;;;28.47;18.83;;;;;;;;;;5052964;28;20406;-76
2021/10/10 06:19:05;;;;;;;39.27;20.10;;;;;;;;;;5053701;28;20968;-77
2021/10/10 06:21:32;;;;;;;25.70;19.60;;;;;;;;;;5053688;28;20466;-77
2021/10/10 06:23:58;;;;;;;25.87;19.57;;;;;;;;;;5053729;28;20489;-77
2021/10/10 06:26:24;;;;;;;30.10;17.90;;;;;;;;;;5053329;28;20405;-78
2021/10/10 06:28:51;;;;;;;26.10;19.33;;;;;;;;;;5053483;28;20421;-77
2021/10/10 06:31:17;;;;;;;29.77;18.53;;;;;;;;;;5053258;28;20445;-77
2021/10/10 06:33:43;;;;;;;24.60;17.10;;;;;;;;;;5053435;28;20402;-77
2021/10/10 06:36:09;;;;;;;26.40;18.87;;;;;;;;;;5053600;28;20453;-77
2021/10/10 06:38:35;;;;;;;27.33;17.97;;;;;;;;;;5053931;28;21016;-77
2021/10/10 06:41:01;;;;;;;26.00;17.37;;;;;;;;;;5052801;28;20414;-77
2021/10/10 06:43:27;;;;;;;27.27;17.70;;;;;;;;;;5053970;28;20781;-77
2021/10/10 06:45:53;;;;;;;24.50;16.17;;;;;;;;;;5054157;28;20477;-77
2021/10/10 06:48:19;;;;;;;22.80;16.03;;;;;;;;;;5052727;28;20755;-77
2021/10/10 06:50:45;;;;;;;23.77;15.97;;;;;;;;;;5053912;28;20406;-77
2021/10/10 06:53:11;;;;;;;26.60;17.47;;;;;;;;;;5054030;28;20891;-78
2021/10/10 06:55:37;;;;;;;21.50;15.43;;;;;;;;;;5053770;28;20418;-77
2021/10/10 06:58:03;;;;;;;28.97;15.80;;;;;;;;;;5053703;28;20959;-78
2021/10/10 07:00:29;;;;;;;22.00;16.40;;;;;;;;;;5054137;28;20489;-78
2021/10/10 07:02:56;;;;;;;21.13;15.80;;;;;;;;;;5051925;28;20839;-77
2021/10/10 07:05:22;;;;;;;22.30;16.37;;;;;;;;;;5052528;28;20488;-77
2021/10/10 07:07:48;;;;;;;27.57;14.70;;;;;;;;;;5052463;28;20402;-77
2021/10/10 07:10:14;;;;;;;23.87;14.20;;;;;;;;;;5052466;28;20402;-77
2021/10/10 07:12:40;;;;;;;25.70;15.27;;;;;;;;;;5053212;28;20953;-77
2021/10/10 07:15:07;;;;;;;26.83;15.20;;;;;;;;;;5053351;28;20797;-77
2021/10/10 07:17:33;;;;;;;18.43;14.53;;;;;;;;;;5052257;28;20402;-78
2021/10/10 07:20:17;;;;;;;19.90;14.13;;;;;;;;;;5054173;28;20406;-75
2021/10/10 07:22:46;;;;;;;27.50;16.93;;;;;;;;;;5051498;28;20489;-77
2021/10/10 07:25:12;;;;;;;24.30;16.23;;;;;;;;;;5052499;28;20489;-77
2021/10/10 07:27:39;;;;;;;25.93;16.53;;;;;;;;;;5051059;28;20453;-76
2021/10/10 07:30:06;;;;;;;21.80;16.70;;;;;;;;;;5056352;28;20410;-76
2021/10/10 07:32:33;;;;;;;27.10;15.67;;;;;;;;;;5056229;28;20479;-76
2021/10/10 07:35:00;;;;;;;21.37;14.67;;;;;;;;;;5055656;28;20465;-77
2021/10/10 07:37:26;;;;;;;22.83;15.37;;;;;;;;;;5056680;28;20405;-77
2021/10/10 07:39:52;;;;;;;24.37;14.83;;;;;;;;;;5056345;28;20409;-77
2021/10/10 07:42:18;;;;;;;18.60;14.63;;;;;;;;;;5056528;28;20455;-77
2021/10/10 07:44:46;;;;;;;25.83;16.10;;;;;;;;;;5056850;28;20552;-77
2021/10/10 07:49:42;;;;;;;21.83;14.83;;;;;;;;;;5057237;28;20406;-78
2021/10/10 07:52:08;;;;;;;19.93;14.27;;;;;;;;;;5057124;28;20459;-77
2021/10/10 07:54:34;;;;;;;21.93;16.00;;;;;;;;;;5057099;28;20430;-77
2021/10/10 07:57:00;;;;;;;19.40;14.43;;;;;;;;;;5057032;28;20401;-78
2021/10/10 07:59:26;;;;;;;20.33;14.10;;;;;;;;;;5056288;28;20479;-77
2021/10/10 08:01:53;;;;;;;22.03;14.97;;;;;;;;;;5054358;28;20449;-77
2021/10/10 08:04:20;;;;;;;21.13;15.40;;;;;;;;;;5054598;28;20449;-77
2021/10/10 08:06:47;;;;;;;21.03;14.63;;;;;;;;;;5055325;28;20422;-77
2021/10/10 08:09:14;;;;;;;19.90;14.80;;;;;;;;;;5048876;28;20441;-77
2021/10/10 08:11:40;;;;;;;21.10;15.23;;;;;;;;;;5054842;28;20453;-77
2021/10/10 08:14:06;;;;;;;19.97;13.50;;;;;;;;;;5054910;28;20418;-77
2021/10/10 08:16:32;;;;;;;23.47;15.37;;;;;;;;;;5055290;28;20431;-77
2021/10/10 08:18:58;;;;;;;21.70;14.90;;;;;;;;;;5055256;28;20418;-77
2021/10/10 08:21:26;;;;;;;23.13;14.10;;;;;;;;;;5054935;28;20429;-77
2021/10/10 08:23:52;;;;;;;21.63;15.70;;;;;;;;;;5054909;28;20460;-77
2021/10/10 08:26:18;;;;;;;18.83;14.97;;;;;;;;;;5055330;28;20465;-78
2021/10/10 08:28:44;;;;;;;19.87;15.10;;;;;;;;;;5055704;28;20402;-77
2021/10/10 08:31:10;;;;;;;19.87;14.27;;;;;;;;;;5054928;28;20465;-77
2021/10/10 08:33:36;;;;;;;22.00;14.20;;;;;;;;;;5054315;28;20498;-77
2021/10/10 08:36:03;;;;;;;29.23;15.10;;;;;;;;;;5053871;28;20456;-77
2021/10/10 08:38:30;;;;;;;22.33;14.87;;;;;;;;;;5055421;28;20402;-77
2021/10/10 08:40:56;;;;;;;19.37;13.83;;;;;;;;;;5053694;28;20406;-77
2021/10/10 08:43:23;;;;;;;22.33;16.10;;;;;;;;;;5055157;28;20441;-77
2021/10/10 08:45:49;;;;;;;24.40;15.50;;;;;;;;;;5054861;28;20483;-77
2021/10/10 08:48:19;;;;;;;19.10;14.20;;;;;;;;;;5055530;28;20420;-78
2021/10/10 08:50:46;;;;;;;19.40;14.57;;;;;;;;;;5055467;28;20408;-78
2021/10/10 08:53:12;;;;;;;20.00;14.27;;;;;;;;;;5056001;28;20748;-77
2021/10/10 08:55:39;;;;;;;25.30;18.63;;;;;;;;;;5054933;28;20425;-77
2021/10/10 08:58:08;;;;;;;21.97;15.90;;;;;;;;;;5055614;28;20830;-76
2021/10/10 09:00:41;;;;;;;19.73;14.23;;;;;;;;;;5054756;28;20743;-77
2021/10/10 09:03:11;;;;;;;20.83;14.80;;;;;;;;;;5055033;28;20394;-78
2021/10/10 09:05:37;;;;;;;23.30;14.93;;;;;;;;;;5055913;28;20767;-76
2021/10/10 09:08:03;;;;;;;22.63;15.40;;;;;;;;;;5056354;28;20440;-78
2021/10/10 09:10:31;;;;;;;19.60;14.10;;;;;;;;;;5054736;28;20821;-78
2021/10/10 09:13:05;;;;;;;25.73;16.17;;;;;;;;;;5055453;28;20448;-78
2021/10/10 09:15:31;;;;;;;18.37;14.50;;;;;;;;;;5056283;28;20410;-78
2021/10/10 09:18:01;;;;;;;21.67;16.20;;;;;;;;;;5054549;28;20394;-78
2021/10/10 09:20:27;;;;;;;23.23;15.33;;;;;;;;;;5054553;28;20479;-78
2021/10/10 09:22:53;;;;;;;22.47;16.50;;;;;;;;;;5054280;28;20451;-77
2021/10/10 09:25:19;;;;;;;27.27;17.13;;;;;;;;;;5054152;28;20410;-77
2021/10/10 09:27:45;;;;;;;27.20;17.23;;;;;;;;;;5054135;28;20417;-78
2021/10/10 09:30:12;;;;;;;22.87;17.03;;;;;;;;;;5054386;28;20398;-77
2021/10/10 09:32:42;;;;;;;26.77;18.27;;;;;;;;;;5054928;28;20464;-77
2021/10/10 09:35:08;;;;;;;26.13;18.30;;;;;;;;;;5054205;28;20858;-78
2021/10/10 09:37:43;;;;;;;32.67;18.20;;;;;;;;;;5053890;28;20492;-77
2021/10/10 09:40:23;;;;;;;23.53;17.37;;;;;;;;;;5053948;28;20958;-77
2021/10/10 09:42:51;;;;;;;23.77;16.63;;;;;;;;;;5054131;28;20378;-77
2021/10/10 09:45:24;;;;;;;28.07;17.60;;;;;;;;;;5053885;28;20471;-77
2021/10/10 09:47:52;;;;;;;26.23;17.97;;;;;;;;;;5054033;28;20389;-77
2021/10/10 09:50:18;;;;;;;26.07;18.20;;;;;;;;;;5062504;28;20402;-77
2021/10/10 09:52:45;;;;;;;39.10;20.80;;;;;;;;;;5058093;28;20566;-79
2021/10/10 09:55:11;;;;;;;28.20;17.63;;;;;;;;;;5058441;28;20413;-77
2021/10/10 09:57:47;;;;;;;23.60;17.37;;;;;;;;;;5053227;28;20398;-77
2021/10/10 10:00:23;;;;;;;25.33;17.13;;;;;;;;;;5054546;28;20916;-78
2021/10/10 10:02:50;;;;;;;32.00;17.00;;;;;;;;;;5055021;28;20390;-77
2021/10/10 10:05:26;;;;;;;23.53;17.60;;;;;;;;;;5054088;28;20436;-78
2021/10/10 10:07:53;;;;;;;24.10;16.60;;;;;;;;;;5052333;28;20489;-77
2021/10/10 10:10:20;;;;;;;26.73;16.03;;;;;;;;;;5038178;28;20417;-78
2021/10/10 10:12:47;;;;;;;21.67;15.80;;;;;;;;;;5033892;28;20458;-78
2021/10/10 10:15:14;;;;;;;24.10;17.97;;;;;;;;;;5033949;28;20780;-78
2021/10/10 10:17:40;;;;;;;23.40;16.83;;;;;;;;;;5032482;28;20399;-78
2021/10/10 10:20:06;;;;;;;24.57;16.60;;;;;;;;;;5033516;28;20406;-78
2021/10/10 10:22:35;;;;;;;29.73;16.80;;;;;;;;;;5033962;28;20417;-78
2021/10/10 10:25:01;;;;;;;25.73;18.30;;;;;;;;;;5033535;28;20411;-78
2021/10/10 10:27:27;;;;;;;34.13;18.67;;;;;;;;;;5033535;28;20422;-78
2021/10/10 10:29:54;;;;;;;24.70;17.57;;;;;;;;;;5033224;28;20399;-78
2021/10/10 10:32:22;;;;;;;24.63;17.10;;;;;;;;;;5033409;28;20445;-78
2021/10/10 10:35:00;;;;;;;27.17;16.93;;;;;;;;;;5032981;28;20442;-77
2021/10/10 10:37:44;;;;;;;22.73;16.60;;;;;;;;;;5031618;28;20402;-77
2021/10/10 10:40:17;;;;;;;24.63;18.43;;;;;;;;;;5033078;28;20411;-77
2021/10/10 10:42:50;;;;;;;24.40;17.20;;;;;;;;;;5033170;28;20773;-77
2021/10/10 10:45:22;;;;;;;23.53;16.87;;;;;;;;;;5032207;28;20798;-78
2021/10/10 10:47:49;;;;;;;27.23;16.93;;;;;;;;;;5033447;28;20411;-78
2021/10/10 10:50:25;;;;;;;25.20;18.03;;;;;;;;;;5031715;28;20425;-78
2021/10/10 10:53:03;;;;;;;26.37;17.60;;;;;;;;;;5032868;28;20454;-77
2021/10/10 10:55:43;;;;;;;25.00;16.63;;;;;;;;;;5033201;28;20777;-78
2021/10/10 10:58:15;;;;;;;35.30;18.20;;;;;;;;;;5033058;28;20396;-77
2021/10/10 11:00:52;;;;;;;32.47;18.73;;;;;;;;;;5032946;28;20409;-77
2021/10/10 11:03:24;;;;;;;21.30;16.00;;;;;;;;;;5035052;28;20409;-77
2021/10/10 11:05:52;;;;;;;23.00;15.20;;;;;;;;;;5035669;28;20449;-77
2021/10/10 11:08:18;;;;;;;20.73;14.00;;;;;;;;;;5037100;28;20398;-77
2021/10/10 11:11:02;;;;;;;19.73;14.47;;;;;;;;;;5037060;28;20410;-77
2021/10/10 11:13:34;;;;;;;21.40;14.93;;;;;;;;;;5035712;28;20414;-77
2021/10/10 11:16:06;;;;;;;19.57;13.27;;;;;;;;;;5076859;22;20849;-69
2021/10/10 11:18:33;;;;;;;22.57;14.27;;;;;;;;;;5056833;28;20409;-67
2021/10/10 11:21:03;;;;;;;20.07;14.47;;;;;;;;;;5056950;28;20440;-67
2021/10/10 11:23:30;;;;;;;23.60;14.77;;;;;;;;;;5056519;28;20775;-67
2021/10/10 11:25:56;;;;;;;21.20;14.00;;;;;;;;;;5056608;28;20467;-67
2021/10/10 11:28:36;;;;;;;24.63;14.47;;;;;;;;;;5086315;22;20975;-63
2021/10/10 11:31:16;;;;;;;18.53;14.27;;;;;;;;;;5076717;28;20482;-63
2021/10/10 11:33:44;;;;;;;25.10;15.13;;;;;;;;;;5076865;28;20419;-63
2021/10/10 11:36:10;;;;;;;19.70;15.40;;;;;;;;;;5076744;28;20734;-63
2021/10/10 11:38:50;;;;;;;20.20;15.40;;;;;;;;;;5076500;28;20416;-64
2021/10/10 11:41:16;;;;;;;16.33;13.13;;;;;;;;;;5076673;28;20767;-63
2021/10/10 11:43:52;;;;;;;19.43;14.10;;;;;;;;;;5076523;28;20397;-62
2021/10/10 11:46:20;;;;;;;15.67;12.90;;;;;;;;;;5076354;28;20546;-64
2021/10/10 11:48:48;;;;;;;17.10;12.53;;;;;;;;;;5076635;28;20774;-60
2021/10/10 11:51:31;;;;;;;20.20;14.20;;;;;;;;;;5076127;28;20907;-62
2021/10/10 11:53:57;;;;;;;18.60;13.57;;;;;;;;;;5076557;28;20757;-62
2021/10/10 11:56:23;;;;;;;19.80;13.87;;;;;;;;;;5076357;28;20393;-62
2021/10/10 11:58:50;;;;;;;15.83;12.17;;;;;;;;;;5076068;28;20977;-61
2021/10/10 12:01:16;;;;;;;23.53;12.60;;;;;;;;;;5076272;28;20412;-61
2021/10/10 12:03:45;;;;;;;20.73;12.87;;;;;;;;;;5075803;28;20410;-61
2021/10/10 12:06:21;;;;;;;18.87;11.87;;;;;;;;;;5076148;28;20769;-60
2021/10/10 12:08:48;;;;;;;19.07;12.43;;;;;;;;;;5073467;28;20427;-60
2021/10/10 12:11:14;;;;;;;14.90;12.10;;;;;;;;;;5071321;28;20464;-60
2021/10/10 12:13:56;;;;;;;20.53;11.60;;;;;;;;;;5075409;28;20903;-61
2021/10/10 12:16:22;;;;;;;17.87;11.30;;;;;;;;;;5075751;28;20396;-61
2021/10/10 12:18:48;;;;;;;19.33;11.33;;;;;;;;;;5075420;28;20427;-60
2021/10/10 12:21:30;;;;;;;17.40;11.27;;;;;;;;;;5075494;28;20439;-62
2021/10/10 12:24:03;;;;;;;18.10;10.70;;;;;;;;;;5075635;28;20401;-60
2021/10/10 12:26:29;;;;;;;15.37;9.47;;;;;;;;;;5075391;28;20746;-62
2021/10/10 12:28:55;;;;;;;15.73;9.47;;;;;;;;;;5075101;28;20531;-61
2021/10/10 12:31:23;;;;;;;10.70;8.13;;;;;;;;;;5075496;28;20835;-61
2021/10/10 12:33:49;;;;;;;16.73;9.50;;;;;;;;;;5075553;28;20398;-60
2021/10/10 12:36:16;;;;;;;12.40;9.63;;;;;;;;;;5075230;28;20404;-60
2021/10/10 12:38:44;;;;;;;12.63;10.10;;;;;;;;;;5075051;28;20507;-62
2021/10/10 12:41:19;;;;;;;12.17;8.20;;;;;;;;;;5075522;28;20737;-63
2021/10/10 12:43:46;;;;;;;13.37;8.20;;;;;;;;;;5077591;28;20436;-60
2021/10/10 12:46:12;;;;;;;13.30;8.90;;;;;;;;;;5075815;28;20771;-62
2021/10/10 12:48:38;;;;;;;11.33;7.53;;;;;;;;;;5075209;28;20437;-62
2021/10/10 12:51:04;;;;;;;14.80;7.97;;;;;;;;;;5075058;28;20448;-60
2021/10/10 12:53:32;;;;;;;18.07;9.30;;;;;;;;;;5075099;28;20401;-61
2021/10/10 12:56:13;;;;;;;9.97;7.87;;;;;;;;;;5074689;28;20411;-62
2021/10/10 12:58:45;;;;;;;9.40;6.20;;;;;;;;;;5074713;28;20434;-62
2021/10/10 13:01:11;;;;;;;10.07;6.37;;;;;;;;;;5072669;28;20832;-62
2021/10/10 13:03:37;;;;;;;9.73;5.67;;;;;;;;;;5072532;28;20424;-61
2021/10/10 13:06:04;;;;;;;6.70;5.13;;;;;;;;;;5068086;28;20432;-62
2021/10/10 13:08:30;;;;;;;7.40;4.50;;;;;;;;;;5075443;28;20450;-60
2021/10/10 13:10:56;;;;;;;6.90;5.17;;;;;;;;;;5073314;28;20962;-60
2021/10/10 13:13:22;;;;;;;13.67;5.40;;;;;;;;;;5072733;28;20477;-67
2021/10/10 13:15:48;;;;;;;18.23;5.63;;;;;;;;;;5074662;28;20455;-67
2021/10/10 13:18:14;;;;;;;10.13;6.07;;;;;;;;;;5072373;28;20451;-65
2021/10/10 13:20:40;;;;;;;7.40;5.30;;;;;;;;;;5070960;28;20432;-65
2021/10/10 13:23:06;;;;;;;8.00;5.80;;;;;;;;;;5063035;28;20421;-65
2021/10/10 13:25:32;;;;;;;9.70;5.23;;;;;;;;;;5071378;28;20424;-66
2021/10/10 13:27:58;;;;;;;9.80;5.93;;;;;;;;;;5071832;28;20464;-66
2021/10/10 13:30:26;;;;;;;9.73;5.50;;;;;;;;;;5073217;28;20451;-67
2021/10/10 13:32:52;;;;;;;8.37;6.20;;;;;;;;;;5071724;28;20823;-67
2021/10/10 13:35:18;;;;;;;9.97;6.40;;;;;;;;;;5072135;28;20995;-67
2021/10/10 13:37:44;;;;;;;10.73;6.30;;;;;;;;;;5074588;28;20424;-69
2021/10/10 13:40:10;;;;;;;7.73;5.60;;;;;;;;;;5075420;28;20482;-67
2021/10/10 13:42:36;;;;;;;10.03;5.60;;;;;;;;;;5077591;28;20412;-67
2021/10/10 13:45:03;;;;;;;13.43;6.33;;;;;;;;;;5077085;28;20408;-67
2021/10/10 13:47:29;;;;;;;10.27;5.73;;;;;;;;;;5077350;28;20830;-66
2021/10/10 13:49:55;;;;;;;10.30;5.73;;;;;;;;;;5076154;28;20405;-65
2021/10/10 13:52:21;;;;;;;12.27;6.63;;;;;;;;;;5075820;28;20455;-65
2021/10/10 13:54:47;;;;;;;13.70;5.93;;;;;;;;;;5075198;28;20400;-64
2021/10/10 13:57:14;;;;;;;9.03;5.70;;;;;;;;;;5074183;28;20401;-65
2021/10/10 13:59:40;;;;;;;11.40;6.87;;;;;;;;;;5074073;28;21036;-66
2021/10/10 14:02:06;;;;;;;11.93;5.87;;;;;;;;;;5073662;28;20423;-64
2021/10/10 14:04:32;;;;;;;9.43;5.17;;;;;;;;;;5073569;28;20912;-63
2021/10/10 14:06:58;;;;;;;7.50;4.73;;;;;;;;;;5073522;28;20538;-63
2021/10/10 14:09:24;;;;;;;9.77;5.17;;;;;;;;;;5073805;28;20433;-69
2021/10/10 14:11:50;;;;;;;10.17;6.43;;;;;;;;;;5071858;28;20547;-66
2021/10/10 14:14:16;;;;;;;9.40;6.30;;;;;;;;;;5072796;28;20409;-67
2021/10/10 14:16:42;;;;;;;8.93;6.33;;;;;;;;;;5073699;28;20467;-66
2021/10/10 14:19:08;;;;;;;8.20;5.87;;;;;;;;;;5070317;28;20435;-67
2021/10/10 14:21:36;;;;;;;11.00;6.03;;;;;;;;;;5060406;28;20969;-68
2021/10/10 14:24:02;;;;;;;13.77;7.00;;;;;;;;;;5071167;28;20927;-67